sensor_id;sensor_type;location;lat;lon;timestamp;P1;P2;P0
84751;PMS5003;74978;37.772;-122.432;2024-02-26T00:00:41;6;6;
84751;PMS5003;74978;37.772;-122.432;2024-02-26T00:03:07;6;6;
84751;PMS5003;74978;37.772;-122.432;2024-02-26T00:05:32;8;8;
84751;PMS5003;74978;37.772;-122.432;2024-02-26T00:07:58;7;7;
84751;PMS5003;74978;37.772;-122.432;2024-02-26T00:10:24;9;8;
84751;PMS5003;74978;37.772;-122.432;2024-02-26T00:12:49;6;6;
84751;PMS5003;74978;37.772;-122.432;2024-02-26T00:15:15;7;7;
84751;PMS5003;74978;37.772;-122.432;2024-02-26T00:17:40;11;9;
84751;PMS5003;74978;37.772;-122.432;2024-02-26T00:20:06;9;9;
84751;PMS5003;74978;37.772;-122.432;2024-02-26T00:22:31;8;7;
84751;PMS5003;74978;37.772;-122.432;2024-02-26T00:24:56;8;8;
84751;PMS5003;74978;37.772;-122.432;2024-02-26T00:27:22;7;7;
84751;PMS5003;74978;37.772;-122.432;2024-02-26T00:29:54;10;10;
84751;PMS5003;74978;37.772;-122.432;2024-02-26T00:32:13;10;10;
84751;PMS5003;74978;37.772;-122.432;2024-02-26T00:34:40;11;9;
84751;PMS5003;74978;37.772;-122.432;2024-02-26T00:37:04;11;11;
84751;PMS5003;74978;37.772;-122.432;2024-02-26T00:39:29;11;10;
84751;PMS5003;74978;37.772;-122.432;2024-02-26T00:41:55;9;8;
84751;PMS5003;74978;37.772;-122.432;2024-02-26T00:44:21;9;9;
84751;PMS5003;74978;37.772;-122.432;2024-02-26T00:46:46;8;8;
84751;PMS5003;74978;37.772;-122.432;2024-02-26T00:49:12;10;10;
84751;PMS5003;74978;37.772;-122.432;2024-02-26T00:51:37;10;10;
84751;PMS5003;74978;37.772;-122.432;2024-02-26T00:54:02;10;10;
84751;PMS5003;74978;37.772;-122.432;2024-02-26T00:56:28;10;10;
84751;PMS5003;74978;37.772;-122.432;2024-02-26T00:58:53;8;8;
84751;PMS5003;74978;37.772;-122.432;2024-02-26T01:01:19;10;9;
84751;PMS5003;74978;37.772;-122.432;2024-02-26T01:03:44;9;9;
84751;PMS5003;74978;37.772;-122.432;2024-02-26T01:06:10;10;10;
84751;PMS5003;74978;37.772;-122.432;2024-02-26T01:08:36;10;10;
84751;PMS5003;74978;37.772;-122.432;2024-02-26T01:11:01;8;8;
84751;PMS5003;74978;37.772;-122.432;2024-02-26T01:13:27;9;9;
84751;PMS5003;74978;37.772;-122.432;2024-02-26T01:15:52;10;10;
84751;PMS5003;74978;37.772;-122.432;2024-02-26T01:18:18;10;10;
84751;PMS5003;74978;37.772;-122.432;2024-02-26T01:20:44;8;8;
84751;PMS5003;74978;37.772;-122.432;2024-02-26T01:23:09;14;12;
84751;PMS5003;74978;37.772;-122.432;2024-02-26T01:25:35;10;10;
84751;PMS5003;74978;37.772;-122.432;2024-02-26T01:28:06;11;11;
84751;PMS5003;74978;37.772;-122.432;2024-02-26T01:30:26;9;9;
84751;PMS5003;74978;37.772;-122.432;2024-02-26T01:32:51;9;9;
84751;PMS5003;74978;37.772;-122.432;2024-02-26T01:35:16;9;9;
84751;PMS5003;74978;37.772;-122.432;2024-02-26T01:37:41;11;10;
84751;PMS5003;74978;37.772;-122.432;2024-02-26T01:40:07;8;8;
84751;PMS5003;74978;37.772;-122.432;2024-02-26T01:42:33;6;6;
84751;PMS5003;74978;37.772;-122.432;2024-02-26T01:44:58;7;7;
84751;PMS5003;74978;37.772;-122.432;2024-02-26T01:47:23;6;6;
84751;PMS5003;74978;37.772;-122.432;2024-02-26T01:49:49;9;9;
84751;PMS5003;74978;37.772;-122.432;2024-02-26T01:52:15;5;5;
84751;PMS5003;74978;37.772;-122.432;2024-02-26T01:54:40;8;6;
84751;PMS5003;74978;37.772;-122.432;2024-02-26T01:57:06;6;6;
84751;PMS5003;74978;37.772;-122.432;2024-02-26T01:59:32;10;10;
84751;PMS5003;74978;37.772;-122.432;2024-02-26T02:01:58;10;10;
84751;PMS5003;74978;37.772;-122.432;2024-02-26T02:04:23;14;8;
84751;PMS5003;74978;37.772;-122.432;2024-02-26T02:06:48;10;9;
84751;PMS5003;74978;37.772;-122.432;2024-02-26T02:09:14;10;10;
84751;PMS5003;74978;37.772;-122.432;2024-02-26T02:11:39;11;11;
84751;PMS5003;74978;37.772;-122.432;2024-02-26T02:14:05;10;10;
84751;PMS5003;74978;37.772;-122.432;2024-02-26T02:16:31;9;9;
84751;PMS5003;74978;37.772;-122.432;2024-02-26T02:18:57;7;7;
84751;PMS5003;74978;37.772;-122.432;2024-02-26T02:21:22;8;8;
84751;PMS5003;74978;37.772;-122.432;2024-02-26T02:23:48;7;7;
84751;PMS5003;74978;37.772;-122.432;2024-02-26T02:26:13;9;7;
84751;PMS5003;74978;37.772;-122.432;2024-02-26T02:28:39;8;8;
84751;PMS5003;74978;37.772;-122.432;2024-02-26T02:31:05;11;9;
84751;PMS5003;74978;37.772;-122.432;2024-02-26T02:33:30;10;10;
84751;PMS5003;74978;37.772;-122.432;2024-02-26T02:35:56;10;9;
84751;PMS5003;74978;37.772;-122.432;2024-02-26T02:38:21;10;10;
84751;PMS5003;74978;37.772;-122.432;2024-02-26T02:40:46;9;9;
84751;PMS5003;74978;37.772;-122.432;2024-02-26T02:43:12;11;10;
84751;PMS5003;74978;37.772;-122.432;2024-02-26T02:45:37;12;12;
84751;PMS5003;74978;37.772;-122.432;2024-02-26T02:48:03;10;10;
84751;PMS5003;74978;37.772;-122.432;2024-02-26T02:50:28;9;9;
84751;PMS5003;74978;37.772;-122.432;2024-02-26T02:52:54;12;12;
84751;PMS5003;74978;37.772;-122.432;2024-02-26T02:55:19;10;9;
84751;PMS5003;74978;37.772;-122.432;2024-02-26T02:57:45;11;11;
84751;PMS5003;74978;37.772;-122.432;2024-02-26T03:00:11;10;10;
84751;PMS5003;74978;37.772;-122.432;2024-02-26T03:02:36;7;7;
84751;PMS5003;74978;37.772;-122.432;2024-02-26T03:05:02;9;9;
84751;PMS5003;74978;37.772;-122.432;2024-02-26T03:07:28;8;8;
84751;PMS5003;74978;37.772;-122.432;2024-02-26T03:09:53;8;8;
84751;PMS5003;74978;37.772;-122.432;2024-02-26T03:12:19;10;10;
84751;PMS5003;74978;37.772;-122.432;2024-02-26T03:14:44;7;7;
84751;PMS5003;74978;37.772;-122.432;2024-02-26T03:17:10;10;9;
84751;PMS5003;74978;37.772;-122.432;2024-02-26T03:19:35;8;8;
84751;PMS5003;74978;37.772;-122.432;2024-02-26T03:22:01;7;7;
84751;PMS5003;74978;37.772;-122.432;2024-02-26T03:24:27;8;6;
84751;PMS5003;74978;37.772;-122.432;2024-02-26T03:26:52;9;8;
84751;PMS5003;74978;37.772;-122.432;2024-02-26T03:29:18;10;10;
84751;PMS5003;74978;37.772;-122.432;2024-02-26T03:31:43;9;9;
84751;PMS5003;74978;37.772;-122.432;2024-02-26T03:34:09;11;11;
84751;PMS5003;74978;37.772;-122.432;2024-02-26T03:36:34;11;11;
84751;PMS5003;74978;37.772;-122.432;2024-02-26T03:39:00;7;7;
84751;PMS5003;74978;37.772;-122.432;2024-02-26T03:41:26;7;7;
84751;PMS5003;74978;37.772;-122.432;2024-02-26T03:43:51;9;8;
84751;PMS5003;74978;37.772;-122.432;2024-02-26T03:46:17;10;9;
84751;PMS5003;74978;37.772;-122.432;2024-02-26T03:48:43;8;7;
84751;PMS5003;74978;37.772;-122.432;2024-02-26T03:51:08;8;8;
84751;PMS5003;74978;37.772;-122.432;2024-02-26T03:53:33;8;7;
84751;PMS5003;74978;37.772;-122.432;2024-02-26T03:56:03;6;6;
84751;PMS5003;74978;37.772;-122.432;2024-02-26T03:58:24;9;7;
84751;PMS5003;74978;37.772;-122.432;2024-02-26T04:00:50;15;9;
84751;PMS5003;74978;37.772;-122.432;2024-02-26T04:03:16;6;6;
84751;PMS5003;74978;37.772;-122.432;2024-02-26T04:05:41;10;7;
84751;PMS5003;74978;37.772;-122.432;2024-02-26T04:08:07;11;8;
84751;PMS5003;74978;37.772;-122.432;2024-02-26T04:10:32;9;9;
84751;PMS5003;74978;37.772;-122.432;2024-02-26T04:12:58;10;10;
84751;PMS5003;74978;37.772;-122.432;2024-02-26T04:15:23;12;12;
84751;PMS5003;74978;37.772;-122.432;2024-02-26T04:17:48;10;9;
84751;PMS5003;74978;37.772;-122.432;2024-02-26T04:20:15;8;8;
84751;PMS5003;74978;37.772;-122.432;2024-02-26T04:22:40;9;8;
84751;PMS5003;74978;37.772;-122.432;2024-02-26T04:25:05;8;8;
84751;PMS5003;74978;37.772;-122.432;2024-02-26T04:27:31;8;8;
84751;PMS5003;74978;37.772;-122.432;2024-02-26T04:29:56;8;7;
84751;PMS5003;74978;37.772;-122.432;2024-02-26T04:32:22;12;12;
84751;PMS5003;74978;37.772;-122.432;2024-02-26T04:34:48;8;8;
84751;PMS5003;74978;37.772;-122.432;2024-02-26T04:37:13;8;7;
84751;PMS5003;74978;37.772;-122.432;2024-02-26T04:39:39;8;8;
84751;PMS5003;74978;37.772;-122.432;2024-02-26T04:42:04;8;6;
84751;PMS5003;74978;37.772;-122.432;2024-02-26T04:44:30;6;6;
84751;PMS5003;74978;37.772;-122.432;2024-02-26T04:46:56;8;8;
84751;PMS5003;74978;37.772;-122.432;2024-02-26T04:49:21;9;8;
84751;PMS5003;74978;37.772;-122.432;2024-02-26T04:51:47;5;5;
84751;PMS5003;74978;37.772;-122.432;2024-02-26T04:54:12;8;7;
84751;PMS5003;74978;37.772;-122.432;2024-02-26T04:56:38;8;8;
84751;PMS5003;74978;37.772;-122.432;2024-02-26T04:59:03;8;8;
84751;PMS5003;74978;37.772;-122.432;2024-02-26T05:01:29;9;7;
84751;PMS5003;74978;37.772;-122.432;2024-02-26T05:03:54;7;7;
84751;PMS5003;74978;37.772;-122.432;2024-02-26T05:06:20;9;7;
84751;PMS5003;74978;37.772;-122.432;2024-02-26T05:08:45;8;8;
84751;PMS5003;74978;37.772;-122.432;2024-02-26T05:11:11;9;9;
84751;PMS5003;74978;37.772;-122.432;2024-02-26T05:13:36;9;9;
84751;PMS5003;74978;37.772;-122.432;2024-02-26T05:16:02;6;6;
84751;PMS5003;74978;37.772;-122.432;2024-02-26T05:18:29;9;9;
84751;PMS5003;74978;37.772;-122.432;2024-02-26T05:20:53;9;9;
84751;PMS5003;74978;37.772;-122.432;2024-02-26T05:23:19;7;7;
84751;PMS5003;74978;37.772;-122.432;2024-02-26T05:25:45;9;9;
84751;PMS5003;74978;37.772;-122.432;2024-02-26T05:28:10;11;10;
84751;PMS5003;74978;37.772;-122.432;2024-02-26T05:30:35;9;9;
84751;PMS5003;74978;37.772;-122.432;2024-02-26T05:33:01;9;9;
84751;PMS5003;74978;37.772;-122.432;2024-02-26T05:35:26;10;9;
84751;PMS5003;74978;37.772;-122.432;2024-02-26T05:37:52;8;8;
84751;PMS5003;74978;37.772;-122.432;2024-02-26T05:40:18;10;10;
84751;PMS5003;74978;37.772;-122.432;2024-02-26T05:42:43;7;7;
84751;PMS5003;74978;37.772;-122.432;2024-02-26T05:45:08;8;8;
84751;PMS5003;74978;37.772;-122.432;2024-02-26T05:47:34;8;8;
84751;PMS5003;74978;37.772;-122.432;2024-02-26T05:50:00;6;6;
84751;PMS5003;74978;37.772;-122.432;2024-02-26T05:52:25;7;6;
84751;PMS5003;74978;37.772;-122.432;2024-02-26T05:54:51;7;7;
84751;PMS5003;74978;37.772;-122.432;2024-02-26T05:57:16;8;6;
84751;PMS5003;74978;37.772;-122.432;2024-02-26T05:59:42;7;7;
84751;PMS5003;74978;37.772;-122.432;2024-02-26T06:02:07;5;5;
84751;PMS5003;74978;37.772;-122.432;2024-02-26T06:04:33;6;6;
84751;PMS5003;74978;37.772;-122.432;2024-02-26T06:06:58;7;5;
84751;PMS5003;74978;37.772;-122.432;2024-02-26T06:09:23;6;6;
84751;PMS5003;74978;37.772;-122.432;2024-02-26T06:11:49;7;7;
84751;PMS5003;74978;37.772;-122.432;2024-02-26T06:14:15;6;6;
84751;PMS5003;74978;37.772;-122.432;2024-02-26T06:16:40;7;7;
84751;PMS5003;74978;37.772;-122.432;2024-02-26T06:19:06;7;7;
84751;PMS5003;74978;37.772;-122.432;2024-02-26T06:21:31;9;8;
84751;PMS5003;74978;37.772;-122.432;2024-02-26T06:23:57;8;7;
84751;PMS5003;74978;37.772;-122.432;2024-02-26T06:26:22;9;8;
84751;PMS5003;74978;37.772;-122.432;2024-02-26T06:28:48;6;6;
84751;PMS5003;74978;37.772;-122.432;2024-02-26T06:31:13;7;7;
84751;PMS5003;74978;37.772;-122.432;2024-02-26T06:33:39;6;6;
84751;PMS5003;74978;37.772;-122.432;2024-02-26T06:36:04;5;5;
84751;PMS5003;74978;37.772;-122.432;2024-02-26T06:38:30;4;4;
84751;PMS5003;74978;37.772;-122.432;2024-02-26T06:40:56;5;5;
84751;PMS5003;74978;37.772;-122.432;2024-02-26T06:43:21;5;5;
84751;PMS5003;74978;37.772;-122.432;2024-02-26T06:45:47;5;5;
84751;PMS5003;74978;37.772;-122.432;2024-02-26T06:48:12;5;5;
84751;PMS5003;74978;37.772;-122.432;2024-02-26T06:50:43;7;7;
84751;PMS5003;74978;37.772;-122.432;2024-02-26T06:53:03;6;6;
84751;PMS5003;74978;37.772;-122.432;2024-02-26T06:55:28;5;5;
84751;PMS5003;74978;37.772;-122.432;2024-02-26T06:57:54;7;7;
84751;PMS5003;74978;37.772;-122.432;2024-02-26T07:00:19;5;5;
84751;PMS5003;74978;37.772;-122.432;2024-02-26T07:02:45;6;5;
84751;PMS5003;74978;37.772;-122.432;2024-02-26T07:05:12;4;4;
84751;PMS5003;74978;37.772;-122.432;2024-02-26T07:07:37;4;4;
84751;PMS5003;74978;37.772;-122.432;2024-02-26T07:10:02;4;4;
84751;PMS5003;74978;37.772;-122.432;2024-02-26T07:12:27;5;5;
84751;PMS5003;74978;37.772;-122.432;2024-02-26T07:14:53;6;5;
84751;PMS5003;74978;37.772;-122.432;2024-02-26T07:17:18;5;5;
84751;PMS5003;74978;37.772;-122.432;2024-02-26T07:19:44;4;4;
84751;PMS5003;74978;37.772;-122.432;2024-02-26T07:22:09;4;4;
84751;PMS5003;74978;37.772;-122.432;2024-02-26T07:24:35;5;5;
84751;PMS5003;74978;37.772;-122.432;2024-02-26T07:27:00;3;3;
84751;PMS5003;74978;37.772;-122.432;2024-02-26T07:29:26;4;4;
84751;PMS5003;74978;37.772;-122.432;2024-02-26T07:31:51;6;6;
84751;PMS5003;74978;37.772;-122.432;2024-02-26T07:34:17;5;5;
84751;PMS5003;74978;37.772;-122.432;2024-02-26T07:36:42;3;3;
84751;PMS5003;74978;37.772;-122.432;2024-02-26T07:39:08;6;5;
84751;PMS5003;74978;37.772;-122.432;2024-02-26T07:41:33;4;4;
84751;PMS5003;74978;37.772;-122.432;2024-02-26T07:43:59;3;3;
84751;PMS5003;74978;37.772;-122.432;2024-02-26T07:46:25;5;5;
84751;PMS5003;74978;37.772;-122.432;2024-02-26T07:48:50;8;7;
84751;PMS5003;74978;37.772;-122.432;2024-02-26T07:51:16;4;4;
84751;PMS5003;74978;37.772;-122.432;2024-02-26T07:53:41;2;2;
84751;PMS5003;74978;37.772;-122.432;2024-02-26T07:56:07;3;3;
84751;PMS5003;74978;37.772;-122.432;2024-02-26T07:58:32;3;3;
84751;PMS5003;74978;37.772;-122.432;2024-02-26T08:00:58;4;4;
84751;PMS5003;74978;37.772;-122.432;2024-02-26T08:03:23;5;3;
84751;PMS5003;74978;37.772;-122.432;2024-02-26T08:05:48;4;4;
84751;PMS5003;74978;37.772;-122.432;2024-02-26T08:08:13;5;5;
84751;PMS5003;74978;37.772;-122.432;2024-02-26T08:10:39;1;1;
84751;PMS5003;74978;37.772;-122.432;2024-02-26T08:13:04;4;4;
84751;PMS5003;74978;37.772;-122.432;2024-02-26T08:15:30;2;2;
84751;PMS5003;74978;37.772;-122.432;2024-02-26T08:17:55;6;6;
84751;PMS5003;74978;37.772;-122.432;2024-02-26T08:20:21;4;4;
84751;PMS5003;74978;37.772;-122.432;2024-02-26T08:22:47;4;4;
84751;PMS5003;74978;37.772;-122.432;2024-02-26T08:25:12;3;2;
84751;PMS5003;74978;37.772;-122.432;2024-02-26T08:27:38;3;3;
84751;PMS5003;74978;37.772;-122.432;2024-02-26T08:30:03;4;4;
84751;PMS5003;74978;37.772;-122.432;2024-02-26T08:32:28;6;6;
84751;PMS5003;74978;37.772;-122.432;2024-02-26T08:34:54;4;4;
84751;PMS5003;74978;37.772;-122.432;2024-02-26T08:37:19;3;3;
84751;PMS5003;74978;37.772;-122.432;2024-02-26T08:39:45;4;3;
84751;PMS5003;74978;37.772;-122.432;2024-02-26T08:42:10;2;2;
84751;PMS5003;74978;37.772;-122.432;2024-02-26T08:44:37;3;3;
84751;PMS5003;74978;37.772;-122.432;2024-02-26T08:47:01;4;4;
84751;PMS5003;74978;37.772;-122.432;2024-02-26T08:49:27;3;3;
84751;PMS5003;74978;37.772;-122.432;2024-02-26T08:51:53;5;5;
84751;PMS5003;74978;37.772;-122.432;2024-02-26T08:54:18;3;3;
84751;PMS5003;74978;37.772;-122.432;2024-02-26T08:56:44;3;3;
84751;PMS5003;74978;37.772;-122.432;2024-02-26T08:59:09;3;3;
84751;PMS5003;74978;37.772;-122.432;2024-02-26T09:01:35;3;3;
84751;PMS5003;74978;37.772;-122.432;2024-02-26T09:04:00;4;4;
84751;PMS5003;74978;37.772;-122.432;2024-02-26T09:06:27;3;3;
84751;PMS5003;74978;37.772;-122.432;2024-02-26T09:08:52;4;2;
84751;PMS5003;74978;37.772;-122.432;2024-02-26T09:11:17;1;1;
84751;PMS5003;74978;37.772;-122.432;2024-02-26T09:13:43;3;3;
84751;PMS5003;74978;37.772;-122.432;2024-02-26T09:16:08;3;3;
84751;PMS5003;74978;37.772;-122.432;2024-02-26T09:18:34;5;5;
84751;PMS5003;74978;37.772;-122.432;2024-02-26T09:21:00;3;3;
84751;PMS5003;74978;37.772;-122.432;2024-02-26T09:23:26;3;3;
84751;PMS5003;74978;37.772;-122.432;2024-02-26T09:25:51;4;4;
84751;PMS5003;74978;37.772;-122.432;2024-02-26T09:28:16;6;5;
84751;PMS5003;74978;37.772;-122.432;2024-02-26T09:30:42;5;5;
84751;PMS5003;74978;37.772;-122.432;2024-02-26T09:33:08;4;4;
84751;PMS5003;74978;37.772;-122.432;2024-02-26T09:35:33;5;5;
84751;PMS5003;74978;37.772;-122.432;2024-02-26T09:37:59;6;4;
84751;PMS5003;74978;37.772;-122.432;2024-02-26T09:40:24;3;3;
84751;PMS5003;74978;37.772;-122.432;2024-02-26T09:42:51;4;4;
84751;PMS5003;74978;37.772;-122.432;2024-02-26T09:45:18;8;6;
84751;PMS5003;74978;37.772;-122.432;2024-02-26T09:47:41;6;6;
84751;PMS5003;74978;37.772;-122.432;2024-02-26T09:50:07;5;5;
84751;PMS5003;74978;37.772;-122.432;2024-02-26T09:52:32;4;4;
84751;PMS5003;74978;37.772;-122.432;2024-02-26T09:54:58;3;3;
84751;PMS5003;74978;37.772;-122.432;2024-02-26T09:57:23;5;4;
84751;PMS5003;74978;37.772;-122.432;2024-02-26T09:59:48;5;5;
84751;PMS5003;74978;37.772;-122.432;2024-02-26T10:02:14;7;4;
84751;PMS5003;74978;37.772;-122.432;2024-02-26T10:04:39;6;4;
84751;PMS5003;74978;37.772;-122.432;2024-02-26T10:07:09;5;5;
84751;PMS5003;74978;37.772;-122.432;2024-02-26T10:09:30;7;6;
84751;PMS5003;74978;37.772;-122.432;2024-02-26T10:11:56;4;4;
84751;PMS5003;74978;37.772;-122.432;2024-02-26T10:14:21;4;4;
84751;PMS5003;74978;37.772;-122.432;2024-02-26T10:16:47;5;3;
84751;PMS5003;74978;37.772;-122.432;2024-02-26T10:21:38;7;7;
84751;PMS5003;74978;37.772;-122.432;2024-02-26T10:24:04;5;4;
84751;PMS5003;74978;37.772;-122.432;2024-02-26T10:26:29;4;4;
84751;PMS5003;74978;37.772;-122.432;2024-02-26T10:28:54;6;6;
84751;PMS5003;74978;37.772;-122.432;2024-02-26T10:31:20;4;4;
84751;PMS5003;74978;37.772;-122.432;2024-02-26T10:33:45;6;6;
84751;PMS5003;74978;37.772;-122.432;2024-02-26T10:36:11;6;6;
84751;PMS5003;74978;37.772;-122.432;2024-02-26T10:38:37;6;6;
84751;PMS5003;74978;37.772;-122.432;2024-02-26T10:41:02;5;5;
84751;PMS5003;74978;37.772;-122.432;2024-02-26T10:43:28;7;7;
84751;PMS5003;74978;37.772;-122.432;2024-02-26T10:45:54;5;5;
84751;PMS5003;74978;37.772;-122.432;2024-02-26T10:48:18;5;5;
84751;PMS5003;74978;37.772;-122.432;2024-02-26T10:50:44;5;5;
84751;PMS5003;74978;37.772;-122.432;2024-02-26T10:53:12;6;5;
84751;PMS5003;74978;37.772;-122.432;2024-02-26T10:55:35;6;6;
84751;PMS5003;74978;37.772;-122.432;2024-02-26T10:58:01;9;6;
84751;PMS5003;74978;37.772;-122.432;2024-02-26T11:00:26;5;4;
84751;PMS5003;74978;37.772;-122.432;2024-02-26T11:02:51;8;8;
84751;PMS5003;74978;37.772;-122.432;2024-02-26T11:05:17;7;7;
84751;PMS5003;74978;37.772;-122.432;2024-02-26T11:07:42;8;6;
84751;PMS5003;74978;37.772;-122.432;2024-02-26T11:10:08;7;7;
84751;PMS5003;74978;37.772;-122.432;2024-02-26T11:12:34;9;9;
84751;PMS5003;74978;37.772;-122.432;2024-02-26T11:14:59;8;8;
84751;PMS5003;74978;37.772;-122.432;2024-02-26T11:17:25;10;9;
84751;PMS5003;74978;37.772;-122.432;2024-02-26T11:19:50;4;4;
84751;PMS5003;74978;37.772;-122.432;2024-02-26T11:22:15;9;6;
84751;PMS5003;74978;37.772;-122.432;2024-02-26T11:24:40;7;7;
84751;PMS5003;74978;37.772;-122.432;2024-02-26T11:27:06;7;7;
84751;PMS5003;74978;37.772;-122.432;2024-02-26T11:29:33;7;7;
84751;PMS5003;74978;37.772;-122.432;2024-02-26T11:31:57;7;7;
84751;PMS5003;74978;37.772;-122.432;2024-02-26T11:34:22;7;7;
84751;PMS5003;74978;37.772;-122.432;2024-02-26T11:36:48;8;8;
84751;PMS5003;74978;37.772;-122.432;2024-02-26T11:39:13;7;6;
84751;PMS5003;74978;37.772;-122.432;2024-02-26T11:41:39;7;7;
84751;PMS5003;74978;37.772;-122.432;2024-02-26T11:44:04;9;9;
84751;PMS5003;74978;37.772;-122.432;2024-02-26T11:46:30;7;7;
84751;PMS5003;74978;37.772;-122.432;2024-02-26T11:48:56;7;7;
84751;PMS5003;74978;37.772;-122.432;2024-02-26T11:51:25;7;7;
84751;PMS5003;74978;37.772;-122.432;2024-02-26T11:53:46;9;9;
84751;PMS5003;74978;37.772;-122.432;2024-02-26T11:56:13;9;9;
84751;PMS5003;74978;37.772;-122.432;2024-02-26T11:58:38;13;13;
84751;PMS5003;74978;37.772;-122.432;2024-02-26T12:01:02;11;9;
84751;PMS5003;74978;37.772;-122.432;2024-02-26T12:03:28;9;9;
84751;PMS5003;74978;37.772;-122.432;2024-02-26T12:05:53;8;7;
84751;PMS5003;74978;37.772;-122.432;2024-02-26T12:08:20;8;8;
84751;PMS5003;74978;37.772;-122.432;2024-02-26T12:10:45;11;9;
84751;PMS5003;74978;37.772;-122.432;2024-02-26T12:13:11;8;8;
84751;PMS5003;74978;37.772;-122.432;2024-02-26T12:15:36;8;8;
84751;PMS5003;74978;37.772;-122.432;2024-02-26T12:18:02;11;11;
84751;PMS5003;74978;37.772;-122.432;2024-02-26T12:20:27;8;8;
84751;PMS5003;74978;37.772;-122.432;2024-02-26T12:22:52;18;15;
84751;PMS5003;74978;37.772;-122.432;2024-02-26T12:25:18;9;8;
84751;PMS5003;74978;37.772;-122.432;2024-02-26T12:27:43;8;7;
84751;PMS5003;74978;37.772;-122.432;2024-02-26T12:30:09;9;7;
84751;PMS5003;74978;37.772;-122.432;2024-02-26T12:32:34;9;9;
84751;PMS5003;74978;37.772;-122.432;2024-02-26T12:34:59;9;9;
84751;PMS5003;74978;37.772;-122.432;2024-02-26T12:37:25;9;9;
84751;PMS5003;74978;37.772;-122.432;2024-02-26T12:39:51;10;10;
84751;PMS5003;74978;37.772;-122.432;2024-02-26T12:42:16;19;12;
84751;PMS5003;74978;37.772;-122.432;2024-02-26T12:44:42;10;10;
84751;PMS5003;74978;37.772;-122.432;2024-02-26T12:47:07;5;5;
84751;PMS5003;74978;37.772;-122.432;2024-02-26T12:49:33;8;7;
84751;PMS5003;74978;37.772;-122.432;2024-02-26T12:51:58;10;10;
84751;PMS5003;74978;37.772;-122.432;2024-02-26T12:54:24;7;7;
84751;PMS5003;74978;37.772;-122.432;2024-02-26T12:56:50;7;7;
84751;PMS5003;74978;37.772;-122.432;2024-02-26T12:59:15;7;7;
84751;PMS5003;74978;37.772;-122.432;2024-02-26T13:01:40;7;7;
84751;PMS5003;74978;37.772;-122.432;2024-02-26T13:04:06;10;7;
84751;PMS5003;74978;37.772;-122.432;2024-02-26T13:06:32;8;8;
84751;PMS5003;74978;37.772;-122.432;2024-02-26T13:08:57;6;6;
84751;PMS5003;74978;37.772;-122.432;2024-02-26T13:11:22;9;9;
84751;PMS5003;74978;37.772;-122.432;2024-02-26T13:13:48;9;9;
84751;PMS5003;74978;37.772;-122.432;2024-02-26T13:16:14;11;9;
84751;PMS5003;74978;37.772;-122.432;2024-02-26T13:18:39;6;6;
84751;PMS5003;74978;37.772;-122.432;2024-02-26T13:21:07;8;8;
84751;PMS5003;74978;37.772;-122.432;2024-02-26T13:23:30;8;8;
84751;PMS5003;74978;37.772;-122.432;2024-02-26T13:25:56;6;5;
84751;PMS5003;74978;37.772;-122.432;2024-02-26T13:28:21;6;6;
84751;PMS5003;74978;37.772;-122.432;2024-02-26T13:30:50;6;6;
84751;PMS5003;74978;37.772;-122.432;2024-02-26T13:33:13;6;6;
84751;PMS5003;74978;37.772;-122.432;2024-02-26T13:35:38;7;7;
84751;PMS5003;74978;37.772;-122.432;2024-02-26T13:38:04;6;6;
84751;PMS5003;74978;37.772;-122.432;2024-02-26T13:40:29;8;6;
84751;PMS5003;74978;37.772;-122.432;2024-02-26T13:42:55;8;8;
84751;PMS5003;74978;37.772;-122.432;2024-02-26T13:45:21;8;8;
84751;PMS5003;74978;37.772;-122.432;2024-02-26T13:47:46;9;9;
84751;PMS5003;74978;37.772;-122.432;2024-02-26T13:50:11;10;9;
84751;PMS5003;74978;37.772;-122.432;2024-02-26T13:52:37;7;7;
84751;PMS5003;74978;37.772;-122.432;2024-02-26T13:55:03;9;8;
84751;PMS5003;74978;37.772;-122.432;2024-02-26T13:57:29;9;9;
84751;PMS5003;74978;37.772;-122.432;2024-02-26T13:59:54;8;8;
84751;PMS5003;74978;37.772;-122.432;2024-02-26T14:02:19;11;10;
84751;PMS5003;74978;37.772;-122.432;2024-02-26T14:04:45;10;10;
84751;PMS5003;74978;37.772;-122.432;2024-02-26T14:07:10;9;8;
84751;PMS5003;74978;37.772;-122.432;2024-02-26T14:09:36;9;9;
84751;PMS5003;74978;37.772;-122.432;2024-02-26T14:12:01;10;10;
84751;PMS5003;74978;37.772;-122.432;2024-02-26T14:14:27;13;13;
84751;PMS5003;74978;37.772;-122.432;2024-02-26T14:16:52;12;12;
84751;PMS5003;74978;37.772;-122.432;2024-02-26T14:19:17;11;11;
84751;PMS5003;74978;37.772;-122.432;2024-02-26T14:21:43;13;13;
84751;PMS5003;74978;37.772;-122.432;2024-02-26T14:24:08;17;15;
84751;PMS5003;74978;37.772;-122.432;2024-02-26T14:26:34;15;13;
84751;PMS5003;74978;37.772;-122.432;2024-02-26T14:28:59;13;12;
84751;PMS5003;74978;37.772;-122.432;2024-02-26T14:31:25;13;13;
84751;PMS5003;74978;37.772;-122.432;2024-02-26T14:33:50;12;12;
84751;PMS5003;74978;37.772;-122.432;2024-02-26T14:36:15;14;14;
84751;PMS5003;74978;37.772;-122.432;2024-02-26T14:38:41;14;14;
84751;PMS5003;74978;37.772;-122.432;2024-02-26T14:41:07;12;12;
84751;PMS5003;74978;37.772;-122.432;2024-02-26T14:43:31;11;11;
84751;PMS5003;74978;37.772;-122.432;2024-02-26T14:45:57;12;11;
84751;PMS5003;74978;37.772;-122.432;2024-02-26T14:48:22;10;10;
84751;PMS5003;74978;37.772;-122.432;2024-02-26T14:50:47;11;11;
84751;PMS5003;74978;37.772;-122.432;2024-02-26T14:53:12;13;13;
84751;PMS5003;74978;37.772;-122.432;2024-02-26T14:55:38;13;13;
84751;PMS5003;74978;37.772;-122.432;2024-02-26T14:58:03;14;13;
84751;PMS5003;74978;37.772;-122.432;2024-02-26T15:00:28;12;12;
84751;PMS5003;74978;37.772;-122.432;2024-02-26T15:02:54;13;12;
84751;PMS5003;74978;37.772;-122.432;2024-02-26T15:05:19;14;12;
84751;PMS5003;74978;37.772;-122.432;2024-02-26T15:07:45;11;10;
84751;PMS5003;74978;37.772;-122.432;2024-02-26T15:10:11;15;12;
84751;PMS5003;74978;37.772;-122.432;2024-02-26T15:12:36;12;11;
84751;PMS5003;74978;37.772;-122.432;2024-02-26T15:15:01;11;11;
84751;PMS5003;74978;37.772;-122.432;2024-02-26T15:17:27;13;13;
84751;PMS5003;74978;37.772;-122.432;2024-02-26T15:19:53;10;10;
84751;PMS5003;74978;37.772;-122.432;2024-02-26T15:22:18;14;11;
84751;PMS5003;74978;37.772;-122.432;2024-02-26T15:24:44;14;14;
84751;PMS5003;74978;37.772;-122.432;2024-02-26T15:27:09;12;12;
84751;PMS5003;74978;37.772;-122.432;2024-02-26T15:29:34;13;11;
84751;PMS5003;74978;37.772;-122.432;2024-02-26T15:32:00;16;14;
84751;PMS5003;74978;37.772;-122.432;2024-02-26T15:34:25;18;16;
84751;PMS5003;74978;37.772;-122.432;2024-02-26T15:36:51;12;12;
84751;PMS5003;74978;37.772;-122.432;2024-02-26T15:39:17;17;15;
84751;PMS5003;74978;37.772;-122.432;2024-02-26T15:41:42;15;15;
84751;PMS5003;74978;37.772;-122.432;2024-02-26T15:44:07;19;18;